| time (UTC) | temp F | wind direction | speed MPH | gust MPH | rain 1hr in | rain 24hr in | rain mn in | humidity % | barometer mb |
| 20260504050323 | 75 | 300 | 6.0 | 14.0 | 0.00 | 0.24 | 0.00 | 80 | 1016.2 |
| 20260504044821 | 75 | 295 | 7.0 | 14.0 | 0.00 | 0.24 | 0.00 | 80 | 1016.3 |
| 20260504043343 | 74 | 322 | 6.0 | 16.0 | 0.00 | 0.24 | 0.00 | 80 | 1016.4 |
| 20260504041818 | 74 | 272 | 6.0 | 13.0 | 0.00 | 0.24 | 0.00 | 80 | 1016.5 |
| 20260504040340 | 75 | 339 | 8.0 | 13.0 | 0.00 | 0.24 | 0.00 | 81 | 1016.6 |
| 20260504034843 | 74 | 300 | 6.0 | 17.0 | 0.00 | 0.24 | 0.24 | 80 | 1016.8 |
| 20260504033321 | 74 | 318 | 7.0 | 14.0 | 0.00 | 0.24 | 0.24 | 80 | 1016.8 |
| 20260504031819 | 74 | 320 | 6.0 | 13.0 | 0.00 | 0.24 | 0.24 | 81 | 1017.0 |
| 20260504030320 | 74 | 330 | 6.0 | 14.0 | 0.00 | 0.24 | 0.24 | 81 | 1016.9 |
| 20260504024817 | 74 | 311 | 7.0 | 14.0 | 0.00 | 0.24 | 0.24 | 80 | 1016.9 |
| 20260504023318 | 75 | 299 | 8.0 | 14.0 | 0.00 | 0.24 | 0.24 | 80 | 1016.9 |
| 20260504021819 | 74 | 318 | 7.0 | 15.0 | 0.00 | 0.24 | 0.24 | 80 | 1016.9 |
| 20260504020321 | 74 | 297 | 5.0 | 12.0 | 0.00 | 0.24 | 0.24 | 79 | 1016.6 |
| 20260504014842 | 74 | 347 | 6.0 | 16.0 | 0.00 | 0.24 | 0.24 | 80 | 1016.5 |
| 20260504013320 | 74 | 291 | 7.0 | 14.0 | 0.00 | 0.24 | 0.24 | 80 | 1016.4 |
| 20260504011822 | 73 | 270 | 7.0 | 16.0 | 0.00 | 0.24 | 0.24 | 80 | 1016.4 |
| 20260504010322 | 74 | 320 | 5.0 | 11.0 | 0.00 | 0.24 | 0.24 | 81 | 1016.3 |
| 20260504004822 | 74 | 284 | 6.0 | 10.0 | 0.00 | 0.24 | 0.24 | 80 | 1016.4 |
| 20260504003323 | 74 | 309 | 4.0 | 13.0 | 0.00 | 0.24 | 0.24 | 80 | 1016.3 |
| 20260504001822 | 74 | 355 | 6.0 | 14.0 | 0.00 | 0.24 | 0.24 | 80 | 1016.1 |
| 20260504000323 | 74 | 303 | 5.0 | 13.0 | 0.00 | 0.24 | 0.24 | 81 | 1016.0 |
| 20260503234826 | 73 | 312 | 6.0 | 13.0 | 0.00 | 0.24 | 0.24 | 81 | 1016.0 |
| 20260503233327 | 73 | 302 | 6.0 | 12.0 | 0.00 | 0.24 | 0.24 | 82 | 1015.9 |
| 20260503231830 | 73 | 328 | 7.0 | 14.0 | 0.00 | 0.24 | 0.24 | 81 | 1015.7 |
| 20260503230330 | 73 | 287 | 6.0 | 15.0 | 0.00 | 0.24 | 0.24 | 82 | 1015.8 |
| 20260503224832 | 73 | 289 | 6.0 | 15.0 | 0.00 | 0.24 | 0.24 | 81 | 1015.6 |
| 20260503223355 | 74 | 305 | 6.0 | 14.0 | 0.00 | 0.24 | 0.24 | 81 | 1015.7 |
| 20260503221838 | 74 | 278 | 5.0 | 12.0 | 0.00 | 0.24 | 0.24 | 80 | 1015.8 |
| 20260503220337 | 74 | 299 | 5.0 | 10.0 | 0.00 | 0.24 | 0.24 | 80 | 1015.9 |
| 20260503214817 | 74 | 341 | 5.0 | 11.0 | 0.00 | 0.24 | 0.24 | 79 | 1015.8 |
| 20260503213319 | 74 | 325 | 4.0 | 9.0 | 0.00 | 0.24 | 0.24 | 80 | 1015.8 |
| 20260503211820 | 73 | 315 | 5.0 | 11.0 | 0.00 | 0.24 | 0.24 | 80 | 1015.9 |
| 20260503210342 | 74 | 318 | 6.0 | 10.0 | 0.00 | 0.24 | 0.24 | 80 | 1016.1 |
| 20260503204822 | 73 | 318 | 3.0 | 9.0 | 0.00 | 0.24 | 0.24 | 80 | 1016.2 |
| 20260503203324 | 73 | 317 | 5.0 | 10.0 | 0.00 | 0.24 | 0.24 | 80 | 1016.3 |
| 20260503201843 | 73 | 3 | 4.0 | 12.0 | 0.00 | 0.24 | 0.24 | 80 | 1016.3 |
| 20260503200323 | 73 | 277 | 6.0 | 12.0 | 0.00 | 0.24 | 0.24 | 80 | 1016.3 |
| 20260503194825 | 73 | 268 | 4.0 | 12.0 | 0.00 | 0.24 | 0.24 | 81 | 1016.3 |
| 20260503193326 | 73 | 284 | 5.0 | 12.0 | 0.00 | 0.24 | 0.24 | 81 | 1016.4 |
| 20260503191826 | 72 | 318 | 5.0 | 14.0 | 0.00 | 0.24 | 0.24 | 82 | 1016.4 |
| 20260503190328 | 72 | 247 | 6.0 | 14.0 | 0.01 | 0.24 | 0.24 | 83 | 1016.8 |
| 20260503184830 | 71 | 297 | 4.0 | 13.0 | 0.04 | 0.24 | 0.24 | 84 | 1017.0 |
| 20260503183347 | 71 | 256 | 6.0 | 13.0 | 0.04 | 0.24 | 0.24 | 84 | 1017.4 |
| 20260503181844 | 71 | 296 | 4.0 | 11.0 | 0.04 | 0.24 | 0.24 | 84 | 1017.6 |
| 20260503180324 | 72 | 209 | 4.0 | 13.0 | 0.03 | 0.23 | 0.23 | 82 | 1017.7 |
| 20260503174826 | 73 | 224 | 4.0 | 11.0 | 0.00 | 0.20 | 0.20 | 81 | 1017.6 |
| 20260503173324 | 73 | 310 | 6.0 | 11.0 | 0.00 | 0.20 | 0.20 | 80 | 1017.7 |
| 20260503171823 | 73 | 239 | 6.0 | 11.0 | 0.00 | 0.20 | 0.20 | 81 | 1017.6 |
| 20260503170321 | 73 | 314 | 5.0 | 12.0 | 0.00 | 0.20 | 0.20 | 81 | 1017.6 |
| 20260503150323 | 73 | 285 | 6.0 | 13.0 | 0.00 | 0.20 | 0.20 | 84 | 1017.9 |
| 20260503130333 | 71 | 332 | 5.0 | 12.0 | 0.00 | 0.20 | 0.20 | 86 | 1016.4 |
| 20260503110325 | 70 | 224 | 7.0 | 14.0 | 0.07 | 0.20 | 0.20 | 91 | 1015.1 |
| 20260503090323 | 71 | 212 | 5.0 | 10.0 | 0.02 | 0.02 | 0.02 | 88 | 1014.6 |
| 20260503080335 | 72 | 260 | 4.0 | 13.0 | 0.00 | 0.00 | 0.00 | 86 | 1014.3 |
| 20260503071822 | 72 | 268 | 0.0 | 3.0 | 0.00 | 0.00 | 0.00 | 86 | 1013.7 |
| 20260503070337 | 73 | 184 | 1.0 | 3.0 | 0.00 | 0.00 | 0.00 | 86 | 1013.4 |
| 20260503060335 | 73 | 74 | 1.0 | 3.0 | 0.00 | 0.00 | 0.00 | 85 | 1013.9 |
| 20260503054834 | 74 | 123 | 0.0 | 2.0 | 0.00 | 0.00 | 0.00 | 85 | 1014.1 |
| 20260503053336 | 74 | 335 | 1.0 | 2.0 | 0.00 | 0.00 | 0.00 | 84 | 1014.3 |
| 20260503051839 | 74 | 101 | 0.0 | 3.0 | 0.00 | 0.00 | 0.00 | 84 | 1014.4 |